sensor_id;sensor_type;location;lat;lon;timestamp;P1;durP1;ratioP1;P2;durP2;ratioP2
7761;SDS011;3925;48.636;9.516;2023-01-29T00:01:01;9.20;;;7.37;;
7761;SDS011;3925;48.636;9.516;2023-01-29T00:03:30;8.77;;;7.93;;
7761;SDS011;3925;48.636;9.516;2023-01-29T00:05:57;10.60;;;8.47;;
7761;SDS011;3925;48.636;9.516;2023-01-29T00:08:24;10.47;;;9.47;;
7761;SDS011;3925;48.636;9.516;2023-01-29T00:10:52;9.47;;;8.50;;
7761;SDS011;3925;48.636;9.516;2023-01-29T00:13:25;8.70;;;7.80;;
7761;SDS011;3925;48.636;9.516;2023-01-29T00:15:52;9.50;;;7.80;;
7761;SDS011;3925;48.636;9.516;2023-01-29T00:18:19;10.20;;;8.43;;
7761;SDS011;3925;48.636;9.516;2023-01-29T00:20:48;9.50;;;8.50;;
7761;SDS011;3925;48.636;9.516;2023-01-29T00:23:15;9.00;;;8.10;;
7761;SDS011;3925;48.636;9.516;2023-01-29T00:25:42;9.60;;;8.43;;
7761;SDS011;3925;48.636;9.516;2023-01-29T00:28:09;8.17;;;7.40;;
7761;SDS011;3925;48.636;9.516;2023-01-29T00:30:36;12.63;;;10.20;;
7761;SDS011;3925;48.636;9.516;2023-01-29T00:33:04;8.93;;;7.80;;
7761;SDS011;3925;48.636;9.516;2023-01-29T00:35:31;9.40;;;8.10;;
7761;SDS011;3925;48.636;9.516;2023-01-29T00:38:00;9.30;;;8.30;;
7761;SDS011;3925;48.636;9.516;2023-01-29T00:40:26;8.13;;;7.33;;
7761;SDS011;3925;48.636;9.516;2023-01-29T00:43:13;12.60;;;8.70;;
7761;SDS011;3925;48.636;9.516;2023-01-29T00:45:57;12.27;;;9.70;;
7761;SDS011;3925;48.636;9.516;2023-01-29T00:48:23;9.90;;;8.27;;
7761;SDS011;3925;48.636;9.516;2023-01-29T00:50:50;9.13;;;8.13;;
7761;SDS011;3925;48.636;9.516;2023-01-29T00:53:19;9.80;;;8.80;;
7761;SDS011;3925;48.636;9.516;2023-01-29T00:55:45;7.97;;;7.20;;
7761;SDS011;3925;48.636;9.516;2023-01-29T00:58:12;8.00;;;7.20;;
7761;SDS011;3925;48.636;9.516;2023-01-29T01:00:46;11.20;;;7.90;;
7761;SDS011;3925;48.636;9.516;2023-01-29T01:03:13;9.57;;;7.57;;
7761;SDS011;3925;48.636;9.516;2023-01-29T01:05:38;9.07;;;8.17;;
7761;SDS011;3925;48.636;9.516;2023-01-29T01:08:06;9.63;;;8.63;;
7761;SDS011;3925;48.636;9.516;2023-01-29T01:10:56;8.90;;;8.00;;
7761;SDS011;3925;48.636;9.516;2023-01-29T01:13:24;8.63;;;7.77;;
7761;SDS011;3925;48.636;9.516;2023-01-29T01:15:51;8.77;;;7.87;;
7761;SDS011;3925;48.636;9.516;2023-01-29T01:18:18;8.13;;;7.33;;
7761;SDS011;3925;48.636;9.516;2023-01-29T01:20:46;9.30;;;8.40;;
7761;SDS011;3925;48.636;9.516;2023-01-29T01:23:15;8.60;;;7.77;;
7761;SDS011;3925;48.636;9.516;2023-01-29T01:25:43;8.83;;;8.03;;
7761;SDS011;3925;48.636;9.516;2023-01-29T01:28:11;8.60;;;7.10;;
7761;SDS011;3925;48.636;9.516;2023-01-29T01:30:38;8.97;;;8.07;;
7761;SDS011;3925;48.636;9.516;2023-01-29T01:33:05;8.40;;;7.63;;
7761;SDS011;3925;48.636;9.516;2023-01-29T01:35:32;7.77;;;6.97;;
7761;SDS011;3925;48.636;9.516;2023-01-29T01:37:59;8.20;;;7.20;;
7761;SDS011;3925;48.636;9.516;2023-01-29T01:40:26;17.33;;;7.00;;
7761;SDS011;3925;48.636;9.516;2023-01-29T01:42:54;8.13;;;7.33;;
7761;SDS011;3925;48.636;9.516;2023-01-29T01:45:25;9.90;;;7.10;;
7761;SDS011;3925;48.636;9.516;2023-01-29T01:47:53;7.37;;;6.70;;
7761;SDS011;3925;48.636;9.516;2023-01-29T01:50:26;12.40;;;7.50;;
7761;SDS011;3925;48.636;9.516;2023-01-29T01:52:57;8.70;;;7.70;;
7761;SDS011;3925;48.636;9.516;2023-01-29T01:55:29;7.57;;;6.87;;
7761;SDS011;3925;48.636;9.516;2023-01-29T01:58:00;8.37;;;7.23;;
7761;SDS011;3925;48.636;9.516;2023-01-29T02:00:33;8.00;;;7.20;;
7761;SDS011;3925;48.636;9.516;2023-01-29T02:03:00;10.07;;;7.20;;
7761;SDS011;3925;48.636;9.516;2023-01-29T02:05:46;7.00;;;6.30;;
7761;SDS011;3925;48.636;9.516;2023-01-29T02:08:34;7.83;;;6.97;;
7761;SDS011;3925;48.636;9.516;2023-01-29T02:11:22;8.37;;;7.30;;
7761;SDS011;3925;48.636;9.516;2023-01-29T02:13:49;8.10;;;7.20;;
7761;SDS011;3925;48.636;9.516;2023-01-29T02:16:20;8.23;;;7.40;;
7761;SDS011;3925;48.636;9.516;2023-01-29T02:18:47;8.87;;;8.03;;
7761;SDS011;3925;48.636;9.516;2023-01-29T02:27:08;6.97;;;6.37;;
7761;SDS011;3925;48.636;9.516;2023-01-29T02:29:42;7.23;;;6.53;;
7761;SDS011;3925;48.636;9.516;2023-01-29T02:32:17;6.30;;;5.70;;
7761;SDS011;3925;48.636;9.516;2023-01-29T02:34:52;4.63;;;4.23;;
7761;SDS011;3925;48.636;9.516;2023-01-29T02:37:44;5.07;;;4.57;;
7761;SDS011;3925;48.636;9.516;2023-01-29T02:40:20;5.67;;;5.17;;
7761;SDS011;3925;48.636;9.516;2023-01-29T02:42:56;5.93;;;5.37;;
7761;SDS011;3925;48.636;9.516;2023-01-29T02:45:34;6.43;;;5.83;;
7761;SDS011;3925;48.636;9.516;2023-01-29T02:48:08;7.27;;;6.53;;
7761;SDS011;3925;48.636;9.516;2023-01-29T02:50:42;5.30;;;4.90;;
7761;SDS011;3925;48.636;9.516;2023-01-29T02:53:15;6.47;;;5.90;;
7761;SDS011;3925;48.636;9.516;2023-01-29T02:55:49;6.97;;;6.27;;
7761;SDS011;3925;48.636;9.516;2023-01-29T02:58:20;7.40;;;6.70;;
7761;SDS011;3925;48.636;9.516;2023-01-29T03:00:55;6.70;;;6.10;;
7761;SDS011;3925;48.636;9.516;2023-01-29T03:03:28;7.23;;;6.53;;
7761;SDS011;3925;48.636;9.516;2023-01-29T03:05:59;6.27;;;5.60;;
7761;SDS011;3925;48.636;9.516;2023-01-29T03:08:30;7.70;;;6.97;;
7761;SDS011;3925;48.636;9.516;2023-01-29T03:11:07;6.63;;;5.80;;
7761;SDS011;3925;48.636;9.516;2023-01-29T03:13:39;7.50;;;6.80;;
7761;SDS011;3925;48.636;9.516;2023-01-29T03:16:13;7.13;;;6.10;;
7761;SDS011;3925;48.636;9.516;2023-01-29T03:18:45;6.53;;;5.73;;
7761;SDS011;3925;48.636;9.516;2023-01-29T03:21:18;7.50;;;5.93;;
7761;SDS011;3925;48.636;9.516;2023-01-29T03:24:07;6.57;;;5.97;;
7761;SDS011;3925;48.636;9.516;2023-01-29T03:26:53;8.30;;;6.97;;
7761;SDS011;3925;48.636;9.516;2023-01-29T03:29:40;6.00;;;5.00;;
7761;SDS011;3925;48.636;9.516;2023-01-29T03:32:28;7.30;;;5.37;;
7761;SDS011;3925;48.636;9.516;2023-01-29T03:34:57;7.20;;;6.50;;
7761;SDS011;3925;48.636;9.516;2023-01-29T03:37:28;6.83;;;6.13;;
7761;SDS011;3925;48.636;9.516;2023-01-29T03:39:59;6.17;;;5.57;;
7761;SDS011;3925;48.636;9.516;2023-01-29T03:42:28;7.83;;;6.47;;
7761;SDS011;3925;48.636;9.516;2023-01-29T03:45:03;6.93;;;6.23;;
7761;SDS011;3925;48.636;9.516;2023-01-29T03:47:39;8.37;;;6.40;;
7761;SDS011;3925;48.636;9.516;2023-01-29T03:50:11;7.13;;;6.43;;
7761;SDS011;3925;48.636;9.516;2023-01-29T03:52:47;6.70;;;5.90;;
7761;SDS011;3925;48.636;9.516;2023-01-29T03:55:17;7.03;;;6.00;;
7761;SDS011;3925;48.636;9.516;2023-01-29T03:57:51;7.50;;;6.70;;
7761;SDS011;3925;48.636;9.516;2023-01-29T04:00:25;6.23;;;5.20;;
7761;SDS011;3925;48.636;9.516;2023-01-29T04:03:00;9.93;;;6.77;;
7761;SDS011;3925;48.636;9.516;2023-01-29T04:05:35;6.80;;;6.10;;
7761;SDS011;3925;48.636;9.516;2023-01-29T04:08:09;7.13;;;6.43;;
7761;SDS011;3925;48.636;9.516;2023-01-29T04:10:40;6.50;;;5.73;;
7761;SDS011;3925;48.636;9.516;2023-01-29T04:13:11;6.60;;;5.47;;
7761;SDS011;3925;48.636;9.516;2023-01-29T04:15:41;7.83;;;7.07;;
7761;SDS011;3925;48.636;9.516;2023-01-29T04:18:14;6.47;;;5.87;;
7761;SDS011;3925;48.636;9.516;2023-01-29T04:20:41;6.47;;;5.87;;
7761;SDS011;3925;48.636;9.516;2023-01-29T04:23:17;6.97;;;6.27;;
7761;SDS011;3925;48.636;9.516;2023-01-29T04:25:47;6.17;;;5.57;;
7761;SDS011;3925;48.636;9.516;2023-01-29T04:28:33;7.00;;;5.70;;
7761;SDS011;3925;48.636;9.516;2023-01-29T04:31:16;5.73;;;5.23;;
7761;SDS011;3925;48.636;9.516;2023-01-29T04:33:49;5.97;;;5.47;;
7761;SDS011;3925;48.636;9.516;2023-01-29T04:36:28;5.80;;;5.20;;
7761;SDS011;3925;48.636;9.516;2023-01-29T04:39:04;6.07;;;5.57;;
7761;SDS011;3925;48.636;9.516;2023-01-29T04:41:39;6.53;;;5.30;;
7761;SDS011;3925;48.636;9.516;2023-01-29T04:44:17;5.67;;;5.13;;
7761;SDS011;3925;48.636;9.516;2023-01-29T04:46:47;7.37;;;5.50;;
7761;SDS011;3925;48.636;9.516;2023-01-29T04:49:22;5.90;;;5.40;;
7761;SDS011;3925;48.636;9.516;2023-01-29T04:51:59;6.40;;;5.80;;
7761;SDS011;3925;48.636;9.516;2023-01-29T04:54:38;6.57;;;5.60;;
7761;SDS011;3925;48.636;9.516;2023-01-29T04:57:16;6.70;;;5.30;;
7761;SDS011;3925;48.636;9.516;2023-01-29T04:59:47;7.67;;;6.97;;
7761;SDS011;3925;48.636;9.516;2023-01-29T05:02:22;6.30;;;5.70;;
7761;SDS011;3925;48.636;9.516;2023-01-29T05:04:53;5.77;;;5.27;;
7761;SDS011;3925;48.636;9.516;2023-01-29T05:07:21;7.27;;;6.67;;
7761;SDS011;3925;48.636;9.516;2023-01-29T05:09:51;7.20;;;6.50;;
7761;SDS011;3925;48.636;9.516;2023-01-29T05:12:19;7.10;;;6.40;;
7761;SDS011;3925;48.636;9.516;2023-01-29T05:14:50;7.03;;;6.10;;
7761;SDS011;3925;48.636;9.516;2023-01-29T05:17:20;7.03;;;6.20;;
7761;SDS011;3925;48.636;9.516;2023-01-29T05:19:47;6.70;;;6.10;;
7761;SDS011;3925;48.636;9.516;2023-01-29T05:22:16;6.83;;;6.13;;
7761;SDS011;3925;48.636;9.516;2023-01-29T05:24:46;7.97;;;6.40;;
7761;SDS011;3925;48.636;9.516;2023-01-29T05:27:15;5.67;;;5.17;;
7761;SDS011;3925;48.636;9.516;2023-01-29T05:30:01;7.43;;;5.63;;
7761;SDS011;3925;48.636;9.516;2023-01-29T05:32:29;7.03;;;5.83;;
7761;SDS011;3925;48.636;9.516;2023-01-29T05:34:56;5.83;;;5.17;;
7761;SDS011;3925;48.636;9.516;2023-01-29T05:37:24;7.70;;;4.97;;
7761;SDS011;3925;48.636;9.516;2023-01-29T05:39:51;5.30;;;4.87;;
7761;SDS011;3925;48.636;9.516;2023-01-29T05:42:18;6.40;;;5.73;;
7761;SDS011;3925;48.636;9.516;2023-01-29T05:44:44;5.47;;;4.97;;
7761;SDS011;3925;48.636;9.516;2023-01-29T05:47:11;6.50;;;5.23;;
7761;SDS011;3925;48.636;9.516;2023-01-29T05:49:38;6.53;;;5.90;;
7761;SDS011;3925;48.636;9.516;2023-01-29T05:52:05;6.40;;;5.37;;
7761;SDS011;3925;48.636;9.516;2023-01-29T05:54:33;6.70;;;6.10;;
7761;SDS011;3925;48.636;9.516;2023-01-29T05:57:00;6.93;;;6.23;;
7761;SDS011;3925;48.636;9.516;2023-01-29T05:59:27;7.33;;;6.57;;
7761;SDS011;3925;48.636;9.516;2023-01-29T06:01:55;19.20;;;10.90;;
7761;SDS011;3925;48.636;9.516;2023-01-29T06:04:22;10.27;;;7.30;;
7761;SDS011;3925;48.636;9.516;2023-01-29T06:06:49;6.47;;;5.83;;
7761;SDS011;3925;48.636;9.516;2023-01-29T06:09:16;6.73;;;5.50;;
7761;SDS011;3925;48.636;9.516;2023-01-29T06:11:44;6.77;;;6.00;;
7761;SDS011;3925;48.636;9.516;2023-01-29T06:14:11;22.17;;;12.40;;
7761;SDS011;3925;48.636;9.516;2023-01-29T06:16:38;19.10;;;11.60;;
7761;SDS011;3925;48.636;9.516;2023-01-29T06:19:04;16.43;;;10.30;;
7761;SDS011;3925;48.636;9.516;2023-01-29T06:21:31;7.60;;;6.50;;
7761;SDS011;3925;48.636;9.516;2023-01-29T06:23:58;9.77;;;6.60;;
7761;SDS011;3925;48.636;9.516;2023-01-29T06:26:25;8.03;;;6.47;;
7761;SDS011;3925;48.636;9.516;2023-01-29T06:28:53;7.43;;;6.20;;
7761;SDS011;3925;48.636;9.516;2023-01-29T06:31:20;6.37;;;5.50;;
7761;SDS011;3925;48.636;9.516;2023-01-29T06:33:47;6.67;;;5.57;;
7761;SDS011;3925;48.636;9.516;2023-01-29T06:36:14;6.80;;;6.00;;
7761;SDS011;3925;48.636;9.516;2023-01-29T06:38:40;6.87;;;5.90;;
7761;SDS011;3925;48.636;9.516;2023-01-29T06:41:08;8.97;;;7.23;;
7761;SDS011;3925;48.636;9.516;2023-01-29T06:43:35;10.60;;;7.10;;
7761;SDS011;3925;48.636;9.516;2023-01-29T06:46:05;5.93;;;5.33;;
7761;SDS011;3925;48.636;9.516;2023-01-29T06:48:33;7.80;;;6.80;;
7761;SDS011;3925;48.636;9.516;2023-01-29T06:51:01;6.73;;;6.03;;
7761;SDS011;3925;48.636;9.516;2023-01-29T06:53:29;6.60;;;5.67;;
7761;SDS011;3925;48.636;9.516;2023-01-29T06:55:56;7.20;;;5.67;;
7761;SDS011;3925;48.636;9.516;2023-01-29T06:58:22;7.60;;;5.47;;
7761;SDS011;3925;48.636;9.516;2023-01-29T07:00:49;8.37;;;6.30;;
7761;SDS011;3925;48.636;9.516;2023-01-29T07:03:20;6.87;;;6.00;;
7761;SDS011;3925;48.636;9.516;2023-01-29T07:05:50;6.50;;;5.03;;
7761;SDS011;3925;48.636;9.516;2023-01-29T07:08:17;8.50;;;6.60;;
7761;SDS011;3925;48.636;9.516;2023-01-29T07:10:46;6.60;;;5.90;;
7761;SDS011;3925;48.636;9.516;2023-01-29T07:13:13;8.30;;;5.60;;
7761;SDS011;3925;48.636;9.516;2023-01-29T07:15:40;6.27;;;5.23;;
7761;SDS011;3925;48.636;9.516;2023-01-29T07:18:08;6.80;;;5.73;;
7761;SDS011;3925;48.636;9.516;2023-01-29T07:20:38;6.40;;;5.80;;
7761;SDS011;3925;48.636;9.516;2023-01-29T07:23:07;5.93;;;5.37;;
7761;SDS011;3925;48.636;9.516;2023-01-29T07:25:37;5.90;;;5.40;;
7761;SDS011;3925;48.636;9.516;2023-01-29T07:28:04;6.10;;;4.90;;
7761;SDS011;3925;48.636;9.516;2023-01-29T07:30:31;6.10;;;5.03;;
7761;SDS011;3925;48.636;9.516;2023-01-29T07:33:02;6.50;;;5.10;;
7761;SDS011;3925;48.636;9.516;2023-01-29T07:35:29;5.37;;;4.87;;
7761;SDS011;3925;48.636;9.516;2023-01-29T07:37:57;6.73;;;4.87;;
7761;SDS011;3925;48.636;9.516;2023-01-29T07:40:24;5.87;;;5.33;;
7761;SDS011;3925;48.636;9.516;2023-01-29T07:42:56;5.57;;;5.07;;
7761;SDS011;3925;48.636;9.516;2023-01-29T07:45:23;4.40;;;3.90;;
7761;SDS011;3925;48.636;9.516;2023-01-29T07:47:50;6.07;;;4.80;;
7761;SDS011;3925;48.636;9.516;2023-01-29T07:50:18;6.00;;;5.17;;
7761;SDS011;3925;48.636;9.516;2023-01-29T07:52:45;5.43;;;4.93;;
7761;SDS011;3925;48.636;9.516;2023-01-29T07:55:14;3.77;;;3.47;;
7761;SDS011;3925;48.636;9.516;2023-01-29T07:57:41;5.00;;;4.30;;
7761;SDS011;3925;48.636;9.516;2023-01-29T08:00:08;3.60;;;3.30;;
7761;SDS011;3925;48.636;9.516;2023-01-29T08:02:36;3.37;;;3.07;;
7761;SDS011;3925;48.636;9.516;2023-01-29T08:05:04;2.90;;;2.70;;
7761;SDS011;3925;48.636;9.516;2023-01-29T08:07:31;3.90;;;3.60;;
7761;SDS011;3925;48.636;9.516;2023-01-29T08:09:58;4.93;;;4.53;;
7761;SDS011;3925;48.636;9.516;2023-01-29T08:12:26;4.37;;;3.40;;
7761;SDS011;3925;48.636;9.516;2023-01-29T08:14:53;4.60;;;4.20;;
7761;SDS011;3925;48.636;9.516;2023-01-29T08:17:20;3.93;;;3.40;;
7761;SDS011;3925;48.636;9.516;2023-01-29T08:19:47;4.30;;;3.77;;
7761;SDS011;3925;48.636;9.516;2023-01-29T08:22:13;4.43;;;3.90;;
7761;SDS011;3925;48.636;9.516;2023-01-29T08:24:41;7.40;;;4.10;;
7761;SDS011;3925;48.636;9.516;2023-01-29T08:27:08;9.30;;;7.23;;
7761;SDS011;3925;48.636;9.516;2023-01-29T08:29:37;6.00;;;4.13;;
7761;SDS011;3925;48.636;9.516;2023-01-29T08:32:04;4.10;;;3.47;;
7761;SDS011;3925;48.636;9.516;2023-01-29T08:34:34;4.27;;;3.70;;
7761;SDS011;3925;48.636;9.516;2023-01-29T08:37:01;4.80;;;4.00;;
7761;SDS011;3925;48.636;9.516;2023-01-29T08:39:27;4.30;;;3.90;;
7761;SDS011;3925;48.636;9.516;2023-01-29T08:41:54;3.90;;;3.60;;
7761;SDS011;3925;48.636;9.516;2023-01-29T08:44:21;4.43;;;4.00;;
7761;SDS011;3925;48.636;9.516;2023-01-29T08:46:49;3.60;;;3.30;;
7761;SDS011;3925;48.636;9.516;2023-01-29T08:49:16;5.23;;;4.03;;
7761;SDS011;3925;48.636;9.516;2023-01-29T08:51:43;3.40;;;3.20;;
7761;SDS011;3925;48.636;9.516;2023-01-29T08:54:10;3.97;;;3.67;;
7761;SDS011;3925;48.636;9.516;2023-01-29T08:56:37;3.50;;;3.20;;
7761;SDS011;3925;48.636;9.516;2023-01-29T08:59:03;4.57;;;3.40;;
7761;SDS011;3925;48.636;9.516;2023-01-29T09:01:30;3.93;;;3.33;;
7761;SDS011;3925;48.636;9.516;2023-01-29T09:03:59;3.30;;;3.03;;
7761;SDS011;3925;48.636;9.516;2023-01-29T09:06:26;3.87;;;3.57;;
7761;SDS011;3925;48.636;9.516;2023-01-29T09:08:52;3.50;;;3.17;;
7761;SDS011;3925;48.636;9.516;2023-01-29T09:11:20;4.30;;;4.00;;
7761;SDS011;3925;48.636;9.516;2023-01-29T09:13:46;5.00;;;4.50;;
7761;SDS011;3925;48.636;9.516;2023-01-29T09:16:13;5.53;;;5.00;;
7761;SDS011;3925;48.636;9.516;2023-01-29T09:18:40;3.53;;;3.23;;
7761;SDS011;3925;48.636;9.516;2023-01-29T09:21:08;4.67;;;4.20;;
7761;SDS011;3925;48.636;9.516;2023-01-29T09:23:36;3.77;;;3.47;;
7761;SDS011;3925;48.636;9.516;2023-01-29T09:26:03;3.73;;;3.43;;
7761;SDS011;3925;48.636;9.516;2023-01-29T09:28:32;4.43;;;3.17;;
7761;SDS011;3925;48.636;9.516;2023-01-29T09:31:00;4.07;;;3.27;;
7761;SDS011;3925;48.636;9.516;2023-01-29T09:33:27;3.73;;;3.43;;
7761;SDS011;3925;48.636;9.516;2023-01-29T09:35:55;3.47;;;3.10;;
7761;SDS011;3925;48.636;9.516;2023-01-29T09:38:23;3.60;;;3.30;;
7761;SDS011;3925;48.636;9.516;2023-01-29T09:40:53;3.33;;;3.07;;
7761;SDS011;3925;48.636;9.516;2023-01-29T09:43:26;5.43;;;3.60;;
7761;SDS011;3925;48.636;9.516;2023-01-29T09:46:03;3.97;;;3.50;;
7761;SDS011;3925;48.636;9.516;2023-01-29T09:48:33;3.80;;;3.50;;
7761;SDS011;3925;48.636;9.516;2023-01-29T09:51:02;3.70;;;3.40;;
7761;SDS011;3925;48.636;9.516;2023-01-29T09:53:35;3.27;;;3.07;;
7761;SDS011;3925;48.636;9.516;2023-01-29T09:56:08;3.90;;;3.60;;
7761;SDS011;3925;48.636;9.516;2023-01-29T09:58:38;3.30;;;3.00;;
7761;SDS011;3925;48.636;9.516;2023-01-29T10:01:09;3.87;;;3.57;;
7761;SDS011;3925;48.636;9.516;2023-01-29T10:03:51;3.50;;;3.20;;
7761;SDS011;3925;48.636;9.516;2023-01-29T10:06:47;5.23;;;4.33;;
7761;SDS011;3925;48.636;9.516;2023-01-29T10:12:35;5.13;;;4.63;;
7761;SDS011;3925;48.636;9.516;2023-01-29T10:15:28;5.17;;;4.77;;
7761;SDS011;3925;48.636;9.516;2023-01-29T10:18:20;4.13;;;3.83;;
7761;SDS011;3925;48.636;9.516;2023-01-29T10:21:13;4.43;;;4.00;;
7761;SDS011;3925;48.636;9.516;2023-01-29T10:24:05;5.57;;;4.00;;
7761;SDS011;3925;48.636;9.516;2023-01-29T10:26:44;3.97;;;3.67;;
7761;SDS011;3925;48.636;9.516;2023-01-29T10:29:13;3.63;;;3.33;;
7761;SDS011;3925;48.636;9.516;2023-01-29T10:31:44;3.50;;;3.20;;
7761;SDS011;3925;48.636;9.516;2023-01-29T10:34:15;3.47;;;2.90;;
7761;SDS011;3925;48.636;9.516;2023-01-29T10:36:48;4.13;;;3.73;;
7761;SDS011;3925;48.636;9.516;2023-01-29T10:39:16;3.50;;;3.20;;
7761;SDS011;3925;48.636;9.516;2023-01-29T10:41:51;3.73;;;3.40;;
7761;SDS011;3925;48.636;9.516;2023-01-29T10:44:42;3.27;;;3.00;;
7761;SDS011;3925;48.636;9.516;2023-01-29T10:47:22;3.50;;;3.20;;
7761;SDS011;3925;48.636;9.516;2023-01-29T10:50:17;3.27;;;3.03;;
7761;SDS011;3925;48.636;9.516;2023-01-29T10:52:55;3.40;;;3.10;;
7761;SDS011;3925;48.636;9.516;2023-01-29T10:55:33;2.90;;;2.70;;
7761;SDS011;3925;48.636;9.516;2023-01-29T10:58:10;3.63;;;3.33;;
7761;SDS011;3925;48.636;9.516;2023-01-29T11:00:44;3.60;;;3.30;;
7761;SDS011;3925;48.636;9.516;2023-01-29T11:03:13;3.60;;;3.30;;
7761;SDS011;3925;48.636;9.516;2023-01-29T11:05:42;3.80;;;3.43;;
7761;SDS011;3925;48.636;9.516;2023-01-29T11:08:17;4.20;;;3.37;;
7761;SDS011;3925;48.636;9.516;2023-01-29T11:10:49;3.90;;;3.60;;
7761;SDS011;3925;48.636;9.516;2023-01-29T11:13:28;3.80;;;3.50;;
7761;SDS011;3925;48.636;9.516;2023-01-29T11:15:57;3.93;;;3.53;;
7761;SDS011;3925;48.636;9.516;2023-01-29T11:18:24;3.53;;;3.10;;
7761;SDS011;3925;48.636;9.516;2023-01-29T11:20:58;3.60;;;3.27;;
7761;SDS011;3925;48.636;9.516;2023-01-29T11:23:28;5.60;;;3.30;;
7761;SDS011;3925;48.636;9.516;2023-01-29T11:25:58;3.40;;;3.00;;
7761;SDS011;3925;48.636;9.516;2023-01-29T11:28:37;4.40;;;4.00;;
7761;SDS011;3925;48.636;9.516;2023-01-29T11:31:15;5.30;;;4.80;;
7761;SDS011;3925;48.636;9.516;2023-01-29T11:33:47;3.70;;;3.37;;
7761;SDS011;3925;48.636;9.516;2023-01-29T11:36:19;4.70;;;4.20;;
7761;SDS011;3925;48.636;9.516;2023-01-29T11:39:12;4.50;;;3.33;;
7761;SDS011;3925;48.636;9.516;2023-01-29T11:41:46;4.30;;;4.00;;
7761;SDS011;3925;48.636;9.516;2023-01-29T11:44:20;4.30;;;3.90;;
7761;SDS011;3925;48.636;9.516;2023-01-29T11:46:53;3.50;;;3.20;;
7761;SDS011;3925;48.636;9.516;2023-01-29T11:49:30;3.83;;;3.53;;
7761;SDS011;3925;48.636;9.516;2023-01-29T11:51:59;3.83;;;3.50;;
7761;SDS011;3925;48.636;9.516;2023-01-29T11:54:30;16.50;;;5.97;;
7761;SDS011;3925;48.636;9.516;2023-01-29T11:56:59;4.77;;;4.27;;
7761;SDS011;3925;48.636;9.516;2023-01-29T11:59:35;4.10;;;3.70;;
7761;SDS011;3925;48.636;9.516;2023-01-29T12:02:28;4.70;;;4.27;;
7761;SDS011;3925;48.636;9.516;2023-01-29T12:05:00;5.10;;;4.60;;
7761;SDS011;3925;48.636;9.516;2023-01-29T12:07:30;3.80;;;3.50;;
7761;SDS011;3925;48.636;9.516;2023-01-29T12:09:58;4.23;;;3.83;;
7761;SDS011;3925;48.636;9.516;2023-01-29T12:12:33;4.27;;;3.87;;
7761;SDS011;3925;48.636;9.516;2023-01-29T12:15:18;4.23;;;3.77;;
7761;SDS011;3925;48.636;9.516;2023-01-29T12:18:03;4.60;;;4.30;;
7761;SDS011;3925;48.636;9.516;2023-01-29T12:20:36;3.77;;;3.47;;
7761;SDS011;3925;48.636;9.516;2023-01-29T12:23:13;3.80;;;3.50;;
7761;SDS011;3925;48.636;9.516;2023-01-29T12:25:49;3.33;;;3.03;;
7761;SDS011;3925;48.636;9.516;2023-01-29T12:28:29;5.40;;;3.80;;
7761;SDS011;3925;48.636;9.516;2023-01-29T12:31:18;4.27;;;3.93;;
7761;SDS011;3925;48.636;9.516;2023-01-29T12:33:51;5.87;;;4.60;;
7761;SDS011;3925;48.636;9.516;2023-01-29T12:36:24;4.87;;;4.37;;
7761;SDS011;3925;48.636;9.516;2023-01-29T12:38:55;3.63;;;3.33;;
7761;SDS011;3925;48.636;9.516;2023-01-29T12:41:31;4.87;;;4.33;;
7761;SDS011;3925;48.636;9.516;2023-01-29T12:44:04;3.90;;;3.57;;
7761;SDS011;3925;48.636;9.516;2023-01-29T12:46:38;3.83;;;3.40;;
7761;SDS011;3925;48.636;9.516;2023-01-29T12:49:10;4.00;;;3.70;;
7761;SDS011;3925;48.636;9.516;2023-01-29T12:51:43;5.37;;;4.90;;
7761;SDS011;3925;48.636;9.516;2023-01-29T12:54:18;5.30;;;4.27;;
7761;SDS011;3925;48.636;9.516;2023-01-29T12:56:48;4.97;;;4.57;;
7761;SDS011;3925;48.636;9.516;2023-01-29T12:59:19;7.17;;;4.37;;
7761;SDS011;3925;48.636;9.516;2023-01-29T13:01:54;4.50;;;4.10;;
7761;SDS011;3925;48.636;9.516;2023-01-29T13:04:28;5.60;;;4.50;;
7761;SDS011;3925;48.636;9.516;2023-01-29T13:07:02;5.37;;;4.10;;
7761;SDS011;3925;48.636;9.516;2023-01-29T13:09:35;4.90;;;4.47;;
7761;SDS011;3925;48.636;9.516;2023-01-29T13:12:09;3.90;;;3.50;;
7761;SDS011;3925;48.636;9.516;2023-01-29T13:14:41;5.03;;;4.30;;
7761;SDS011;3925;48.636;9.516;2023-01-29T13:17:14;5.17;;;4.53;;
7761;SDS011;3925;48.636;9.516;2023-01-29T13:19:48;5.27;;;4.77;;
7761;SDS011;3925;48.636;9.516;2023-01-29T13:22:19;4.47;;;4.07;;
7761;SDS011;3925;48.636;9.516;2023-01-29T13:24:50;5.37;;;3.83;;
7761;SDS011;3925;48.636;9.516;2023-01-29T13:27:21;4.27;;;3.60;;
7761;SDS011;3925;48.636;9.516;2023-01-29T13:29:51;5.63;;;4.53;;
7761;SDS011;3925;48.636;9.516;2023-01-29T13:32:20;6.83;;;4.50;;
7761;SDS011;3925;48.636;9.516;2023-01-29T13:34:50;7.03;;;4.73;;
7761;SDS011;3925;48.636;9.516;2023-01-29T13:37:21;4.40;;;3.90;;
7761;SDS011;3925;48.636;9.516;2023-01-29T13:39:52;5.00;;;4.50;;
7761;SDS011;3925;48.636;9.516;2023-01-29T13:42:21;4.00;;;3.70;;
7761;SDS011;3925;48.636;9.516;2023-01-29T13:44:51;3.83;;;3.53;;
7761;SDS011;3925;48.636;9.516;2023-01-29T13:47:22;4.17;;;3.77;;
7761;SDS011;3925;48.636;9.516;2023-01-29T13:49:53;4.20;;;3.80;;
7761;SDS011;3925;48.636;9.516;2023-01-29T13:52:25;4.90;;;4.37;;
7761;SDS011;3925;48.636;9.516;2023-01-29T13:54:57;5.63;;;4.80;;
7761;SDS011;3925;48.636;9.516;2023-01-29T13:57:45;7.57;;;4.90;;
7761;SDS011;3925;48.636;9.516;2023-01-29T14:03:38;4.67;;;4.27;;
7761;SDS011;3925;48.636;9.516;2023-01-29T14:06:10;4.37;;;3.73;;
7761;SDS011;3925;48.636;9.516;2023-01-29T14:08:58;7.20;;;5.40;;
7761;SDS011;3925;48.636;9.516;2023-01-29T14:11:35;5.37;;;4.97;;
7761;SDS011;3925;48.636;9.516;2023-01-29T14:14:02;4.77;;;4.37;;
7761;SDS011;3925;48.636;9.516;2023-01-29T14:17:22;4.83;;;4.43;;
7761;SDS011;3925;48.636;9.516;2023-01-29T14:19:51;7.03;;;4.80;;
7761;SDS011;3925;48.636;9.516;2023-01-29T14:22:25;5.87;;;5.27;;
7761;SDS011;3925;48.636;9.516;2023-01-29T14:24:55;5.07;;;4.30;;
7761;SDS011;3925;48.636;9.516;2023-01-29T14:27:26;4.40;;;4.00;;
7761;SDS011;3925;48.636;9.516;2023-01-29T14:29:57;7.70;;;5.17;;
7761;SDS011;3925;48.636;9.516;2023-01-29T14:32:26;5.23;;;4.73;;
7761;SDS011;3925;48.636;9.516;2023-01-29T14:34:54;5.97;;;5.27;;
7761;SDS011;3925;48.636;9.516;2023-01-29T14:37:26;5.00;;;4.50;;
7761;SDS011;3925;48.636;9.516;2023-01-29T14:40:05;7.73;;;7.13;;
7761;SDS011;3925;48.636;9.516;2023-01-29T14:42:43;5.63;;;5.13;;
7761;SDS011;3925;48.636;9.516;2023-01-29T14:45:23;5.60;;;5.10;;
7761;SDS011;3925;48.636;9.516;2023-01-29T14:48:03;5.50;;;5.00;;
7761;SDS011;3925;48.636;9.516;2023-01-29T14:50:50;5.70;;;5.17;;
7761;SDS011;3925;48.636;9.516;2023-01-29T14:56:27;6.43;;;5.30;;
7761;SDS011;3925;48.636;9.516;2023-01-29T14:59:01;5.80;;;4.90;;
7761;SDS011;3925;48.636;9.516;2023-01-29T15:01:38;6.10;;;4.57;;
7761;SDS011;3925;48.636;9.516;2023-01-29T15:04:12;4.50;;;3.97;;
7761;SDS011;3925;48.636;9.516;2023-01-29T15:06:43;6.03;;;5.53;;
7761;SDS011;3925;48.636;9.516;2023-01-29T15:09:13;5.67;;;4.87;;
7761;SDS011;3925;48.636;9.516;2023-01-29T15:14:31;5.93;;;5.33;;
7761;SDS011;3925;48.636;9.516;2023-01-29T15:17:05;7.70;;;4.80;;
7761;SDS011;3925;48.636;9.516;2023-01-29T15:19:45;6.10;;;5.30;;
7761;SDS011;3925;48.636;9.516;2023-01-29T15:22:13;6.77;;;5.57;;
7761;SDS011;3925;48.636;9.516;2023-01-29T15:24:42;6.30;;;5.60;;
7761;SDS011;3925;48.636;9.516;2023-01-29T15:27:13;5.60;;;5.10;;
7761;SDS011;3925;48.636;9.516;2023-01-29T15:29:43;7.87;;;5.50;;
7761;SDS011;3925;48.636;9.516;2023-01-29T15:32:15;6.20;;;5.60;;
7761;SDS011;3925;48.636;9.516;2023-01-29T15:34:53;6.33;;;5.83;;
7761;SDS011;3925;48.636;9.516;2023-01-29T15:37:23;6.73;;;5.37;;
7761;SDS011;3925;48.636;9.516;2023-01-29T15:39:51;8.57;;;5.60;;
7761;SDS011;3925;48.636;9.516;2023-01-29T15:42:19;5.43;;;4.60;;
7761;SDS011;3925;48.636;9.516;2023-01-29T15:44:49;5.87;;;5.27;;
7761;SDS011;3925;48.636;9.516;2023-01-29T15:47:18;6.47;;;5.50;;
7761;SDS011;3925;48.636;9.516;2023-01-29T15:49:47;5.50;;;5.00;;
7761;SDS011;3925;48.636;9.516;2023-01-29T15:52:15;6.23;;;5.47;;
7761;SDS011;3925;48.636;9.516;2023-01-29T15:54:43;5.23;;;4.83;;
7761;SDS011;3925;48.636;9.516;2023-01-29T15:57:17;6.00;;;5.17;;
7761;SDS011;3925;48.636;9.516;2023-01-29T15:59:48;9.10;;;6.90;;
7761;SDS011;3925;48.636;9.516;2023-01-29T16:02:34;12.80;;;8.97;;